Terminal Aerodrome Forecast
Issued by NWS

Home | Current Version | Previous Version | Text Only | Print | Product List | Glossary On
Versions: 1 2 3 4 5 6 7 8 9 10 11 12 13 14
000
FTUS46 KMTR 050742 AAA
TAFMRY
TAF AMD
KMRY 050742Z 0508/0606 22004KT P6SM OVC003
     FM051700 28008KT P6SM SCT010 BKN200
     FM060100 27005KT P6SM BKN200
     FM060400 20004KT P6SM OVC006=

USA.gov is the U.S. government's official web portal to all federal, state and local government web resources and services.